Terminal Aerodrome Forecast
Issued by NWS Springfield, MO

Home | Current Version | Previous Version | Text Only | Print | Product List | Glossary On
Versions: 1 2 3 4 5 6 7 8 9 10 11 12 13 14 15 16 17 18 19 20 21 22 23 24 25 26 27 28
000
FTUS43 KSGF 270400 AAC
TAFSGF
TAF AMD
KSGF 270446Z 2705/2724 31015G25KT P6SM BKN025 OVC040
     FM271000 33008KT P6SM BKN020 OVC035
     FM271500 VRB04KT P6SM FEW050 SCT250=

USA.gov is the U.S. government's official web portal to all federal, state and local government web resources and services.